Airfield :
LOGIN :

Register | Disclaimer

   EN    FR    IT 

 










Legend :    VFR   Marginal VFR   IFR   Intensive IFR   Very Intensive IFR
Visi :
Ceiling :
>= 8 km
>= 3000ft
5 to 8 km
1000 to 3000 ft
1500m to 5 km
500 to 1000 ft
800 to 1500m
200 to 500 ft
< 800m
< 200 ft
Symbols :   Thunderstorms  Fog  Heavy snow  Heavy precipitations  Wind > 20 kt
SIGMETs :     Misc.  Thunderstorms  Icing  Turbulence  Mountain Waves  Volcanic Ashes






- Airport Elevation : 39 ft
- IATA code : SUF


LICA - Lamezia Terme

CURRENT METAR :
  • 260220Z AUTO 09006KT 9999 NCD 24/14 Q1013

EXPIRED METARs :
  • 260150Z AUTO 09006KT 9999 NCD 25/15 Q1013
  • 260120Z AUTO 06009KT 9999 NCD 27/13 Q1013
  • 260050Z AUTO 06007KT 9999 NCD 26/14 Q1013
  • 260020Z AUTO 07006KT 9999 NCD 23/15 Q1013
  • 252350Z AUTO 07007KT 9999 NCD 23/16 Q1013

TAF TAF LICA
Valid from the 26 at 00:00 until the 27 at 00:00 UTC


252300Z 2600/2624 08008KT CAVOK
BECMG 2608/2610 27010KT
BECMG 2616/2618 08008KT



MET'MAP, your aeronautical weather chart ! - Copyright ORBIFLY December 2007 - Disclaimer

ORBIFLY MET'MAP TEAM :

Programming & Development : Alexandra Zaïnal
Concept & original design : Baudouin d'Aumeries
Assistance for programming : Marc-Olivier Méhu
Technical & hardware support : Manuel Goepfert

Contact : metmap@orbifly.com




SOURCES & CREDITS :

   NOAA